sensor_id;sensor_type;location;lat;lon;timestamp;P1;durP1;ratioP1;P2;durP2;ratioP2
17193;SDS011;8713;48.388;10.928;2022-07-24T06:26:06;9.48;;;6.85;;
17193;SDS011;8713;48.388;10.928;2022-07-24T06:27:15;12.73;;;7.80;;
17193;SDS011;8713;48.388;10.928;2022-07-24T06:28:25;11.13;;;7.40;;
17193;SDS011;8713;48.388;10.928;2022-07-24T06:29:34;8.75;;;6.70;;
17193;SDS011;8713;48.388;10.928;2022-07-24T06:30:44;10.27;;;6.88;;
17193;SDS011;8713;48.388;10.928;2022-07-24T06:31:53;9.88;;;6.97;;
17193;SDS011;8713;48.388;10.928;2022-07-24T06:33:03;9.30;;;6.70;;
17193;SDS011;8713;48.388;10.928;2022-07-24T06:34:12;10.73;;;7.13;;
17193;SDS011;8713;48.388;10.928;2022-07-24T06:35:22;10.40;;;6.95;;
17193;SDS011;8713;48.388;10.928;2022-07-24T06:36:32;9.63;;;6.78;;
17193;SDS011;8713;48.388;10.928;2022-07-24T06:37:41;10.60;;;7.05;;
17193;SDS011;8713;48.388;10.928;2022-07-24T06:38:51;14.27;;;7.38;;
17193;SDS011;8713;48.388;10.928;2022-07-24T06:40:01;12.75;;;7.75;;
17193;SDS011;8713;48.388;10.928;2022-07-24T06:41:11;11.40;;;7.53;;
17193;SDS011;8713;48.388;10.928;2022-07-24T06:42:20;11.90;;;7.60;;
17193;SDS011;8713;48.388;10.928;2022-07-24T06:43:30;10.13;;;7.00;;
17193;SDS011;8713;48.388;10.928;2022-07-24T06:44:39;10.38;;;7.03;;
17193;SDS011;8713;48.388;10.928;2022-07-24T06:45:49;10.30;;;6.95;;
17193;SDS011;8713;48.388;10.928;2022-07-24T06:46:58;11.05;;;7.35;;
17193;SDS011;8713;48.388;10.928;2022-07-24T06:48:08;12.35;;;7.57;;
17193;SDS011;8713;48.388;10.928;2022-07-24T06:49:17;12.30;;;7.32;;
17193;SDS011;8713;48.388;10.928;2022-07-24T06:50:27;9.15;;;6.70;;
17193;SDS011;8713;48.388;10.928;2022-07-24T06:51:37;8.73;;;6.43;;
17193;SDS011;8713;48.388;10.928;2022-07-24T06:52:47;10.57;;;6.45;;
17193;SDS011;8713;48.388;10.928;2022-07-24T06:53:56;13.60;;;7.25;;
17193;SDS011;8713;48.388;10.928;2022-07-24T06:55:05;9.68;;;6.55;;
17193;SDS011;8713;48.388;10.928;2022-07-24T06:56:16;9.05;;;6.47;;
17193;SDS011;8713;48.388;10.928;2022-07-24T06:57:25;7.93;;;6.07;;
17193;SDS011;8713;48.388;10.928;2022-07-24T06:58:35;10.20;;;6.43;;
17193;SDS011;8713;48.388;10.928;2022-07-24T06:59:44;11.00;;;6.95;;
17193;SDS011;8713;48.388;10.928;2022-07-24T07:00:53;9.82;;;6.50;;
17193;SDS011;8713;48.388;10.928;2022-07-24T07:02:03;13.52;;;6.57;;
17193;SDS011;8713;48.388;10.928;2022-07-24T07:03:12;9.80;;;6.20;;
17193;SDS011;8713;48.388;10.928;2022-07-24T07:04:22;12.07;;;6.75;;
17193;SDS011;8713;48.388;10.928;2022-07-24T07:05:31;8.70;;;5.32;;
17193;SDS011;8713;48.388;10.928;2022-07-24T07:06:41;9.80;;;6.10;;
17193;SDS011;8713;48.388;10.928;2022-07-24T07:07:50;9.88;;;6.38;;
17193;SDS011;8713;48.388;10.928;2022-07-24T07:09:00;8.53;;;6.53;;
17193;SDS011;8713;48.388;10.928;2022-07-24T07:10:09;12.23;;;6.43;;
17193;SDS011;8713;48.388;10.928;2022-07-24T07:11:18;8.82;;;6.32;;
17193;SDS011;8713;48.388;10.928;2022-07-24T07:12:28;9.25;;;6.18;;
17193;SDS011;8713;48.388;10.928;2022-07-24T07:13:38;9.23;;;6.45;;
17193;SDS011;8713;48.388;10.928;2022-07-24T07:14:47;9.68;;;6.63;;
17193;SDS011;8713;48.388;10.928;2022-07-24T07:15:57;10.73;;;6.22;;
17193;SDS011;8713;48.388;10.928;2022-07-24T07:17:06;8.13;;;5.57;;
17193;SDS011;8713;48.388;10.928;2022-07-24T07:18:16;10.18;;;6.28;;
17193;SDS011;8713;48.388;10.928;2022-07-24T07:19:25;9.90;;;6.00;;
17193;SDS011;8713;48.388;10.928;2022-07-24T07:20:35;8.40;;;5.80;;
17193;SDS011;8713;48.388;10.928;2022-07-24T07:21:44;10.15;;;5.75;;
17193;SDS011;8713;48.388;10.928;2022-07-24T07:22:53;9.98;;;6.20;;
17193;SDS011;8713;48.388;10.928;2022-07-24T07:24:04;6.85;;;5.38;;
17193;SDS011;8713;48.388;10.928;2022-07-24T07:25:14;9.25;;;5.80;;
17193;SDS011;8713;48.388;10.928;2022-07-24T07:26:23;7.10;;;5.60;;
17193;SDS011;8713;48.388;10.928;2022-07-24T07:27:33;9.07;;;6.05;;
17193;SDS011;8713;48.388;10.928;2022-07-24T07:28:43;7.80;;;5.90;;
17193;SDS011;8713;48.388;10.928;2022-07-24T07:29:52;7.57;;;5.50;;
17193;SDS011;8713;48.388;10.928;2022-07-24T07:31:02;9.15;;;6.00;;
17193;SDS011;8713;48.388;10.928;2022-07-24T07:32:11;9.32;;;6.20;;
17193;SDS011;8713;48.388;10.928;2022-07-24T07:33:21;8.50;;;5.80;;
17193;SDS011;8713;48.388;10.928;2022-07-24T07:34:31;7.15;;;5.65;;
17193;SDS011;8713;48.388;10.928;2022-07-24T07:35:40;12.15;;;6.10;;
17193;SDS011;8713;48.388;10.928;2022-07-24T07:36:50;9.80;;;6.35;;
17193;SDS011;8713;48.388;10.928;2022-07-24T07:37:59;10.80;;;5.90;;
17193;SDS011;8713;48.388;10.928;2022-07-24T07:39:09;9.68;;;6.10;;
17193;SDS011;8713;48.388;10.928;2022-07-24T07:40:18;8.30;;;5.53;;
17193;SDS011;8713;48.388;10.928;2022-07-24T07:41:28;7.82;;;5.70;;
17193;SDS011;8713;48.388;10.928;2022-07-24T07:42:37;8.73;;;6.10;;
17193;SDS011;8713;48.388;10.928;2022-07-24T07:43:47;8.65;;;5.88;;
17193;SDS011;8713;48.388;10.928;2022-07-24T07:44:56;8.65;;;6.13;;
17193;SDS011;8713;48.388;10.928;2022-07-24T07:46:06;9.15;;;6.40;;
17193;SDS011;8713;48.388;10.928;2022-07-24T07:47:16;8.95;;;5.95;;
17193;SDS011;8713;48.388;10.928;2022-07-24T07:48:25;10.32;;;5.60;;
17193;SDS011;8713;48.388;10.928;2022-07-24T07:49:35;8.88;;;6.03;;
17193;SDS011;8713;48.388;10.928;2022-07-24T07:50:45;9.30;;;5.95;;
17193;SDS011;8713;48.388;10.928;2022-07-24T07:51:54;11.60;;;6.10;;
17193;SDS011;8713;48.388;10.928;2022-07-24T07:53:04;10.43;;;6.38;;
17193;SDS011;8713;48.388;10.928;2022-07-24T07:54:13;9.60;;;5.82;;
17193;SDS011;8713;48.388;10.928;2022-07-24T07:55:23;9.55;;;5.40;;
17193;SDS011;8713;48.388;10.928;2022-07-24T07:56:32;9.73;;;5.82;;
17193;SDS011;8713;48.388;10.928;2022-07-24T07:57:42;10.00;;;5.82;;
17193;SDS011;8713;48.388;10.928;2022-07-24T07:58:52;9.25;;;5.90;;
17193;SDS011;8713;48.388;10.928;2022-07-24T08:00:02;7.97;;;5.40;;
17193;SDS011;8713;48.388;10.928;2022-07-24T08:01:20;9.15;;;5.82;;
17193;SDS011;8713;48.388;10.928;2022-07-24T08:02:29;6.25;;;5.15;;
17193;SDS011;8713;48.388;10.928;2022-07-24T08:03:39;7.47;;;5.22;;
17193;SDS011;8713;48.388;10.928;2022-07-24T08:04:49;10.70;;;5.60;;
17193;SDS011;8713;48.388;10.928;2022-07-24T08:05:59;7.65;;;5.30;;
17193;SDS011;8713;48.388;10.928;2022-07-24T08:07:10;8.50;;;5.93;;
17193;SDS011;8713;48.388;10.928;2022-07-24T08:08:19;6.85;;;5.20;;
17193;SDS011;8713;48.388;10.928;2022-07-24T08:09:28;8.68;;;5.28;;
17193;SDS011;8713;48.388;10.928;2022-07-24T08:10:38;7.70;;;5.40;;
17193;SDS011;8713;48.388;10.928;2022-07-24T08:11:47;8.43;;;5.43;;
17193;SDS011;8713;48.388;10.928;2022-07-24T08:12:57;8.88;;;6.00;;
17193;SDS011;8713;48.388;10.928;2022-07-24T08:14:07;10.73;;;5.72;;
17193;SDS011;8713;48.388;10.928;2022-07-24T08:15:16;9.52;;;5.97;;
17193;SDS011;8713;48.388;10.928;2022-07-24T08:16:26;7.72;;;5.72;;
17193;SDS011;8713;48.388;10.928;2022-07-24T08:17:35;7.75;;;5.25;;
17193;SDS011;8713;48.388;10.928;2022-07-24T08:18:45;9.88;;;5.78;;
17193;SDS011;8713;48.388;10.928;2022-07-24T08:19:54;7.72;;;5.68;;
17193;SDS011;8713;48.388;10.928;2022-07-24T08:21:04;8.40;;;5.93;;
17193;SDS011;8713;48.388;10.928;2022-07-24T08:22:13;12.40;;;6.22;;
17193;SDS011;8713;48.388;10.928;2022-07-24T08:23:23;9.43;;;6.15;;
17193;SDS011;8713;48.388;10.928;2022-07-24T08:24:32;8.93;;;5.93;;
17193;SDS011;8713;48.388;10.928;2022-07-24T08:25:41;10.23;;;5.82;;
17193;SDS011;8713;48.388;10.928;2022-07-24T08:26:51;9.98;;;5.63;;
17193;SDS011;8713;48.388;10.928;2022-07-24T08:28:00;9.38;;;5.88;;
17193;SDS011;8713;48.388;10.928;2022-07-24T08:29:10;7.75;;;5.05;;
17193;SDS011;8713;48.388;10.928;2022-07-24T08:30:19;8.95;;;5.75;;
17193;SDS011;8713;48.388;10.928;2022-07-24T08:31:30;8.55;;;5.13;;
17193;SDS011;8713;48.388;10.928;2022-07-24T08:32:40;7.88;;;4.72;;
17193;SDS011;8713;48.388;10.928;2022-07-24T08:33:49;6.82;;;5.05;;
17193;SDS011;8713;48.388;10.928;2022-07-24T08:34:59;8.98;;;5.07;;
17193;SDS011;8713;48.388;10.928;2022-07-24T08:36:08;8.07;;;5.03;;
17193;SDS011;8713;48.388;10.928;2022-07-24T08:37:21;7.05;;;5.20;;
17193;SDS011;8713;48.388;10.928;2022-07-24T08:38:30;9.40;;;5.30;;
17193;SDS011;8713;48.388;10.928;2022-07-24T08:39:40;7.65;;;5.25;;
17193;SDS011;8713;48.388;10.928;2022-07-24T08:40:49;9.35;;;4.95;;
17193;SDS011;8713;48.388;10.928;2022-07-24T08:41:59;7.47;;;5.47;;
17193;SDS011;8713;48.388;10.928;2022-07-24T08:43:08;7.95;;;4.85;;
17193;SDS011;8713;48.388;10.928;2022-07-24T08:44:18;7.65;;;5.40;;
17193;SDS011;8713;48.388;10.928;2022-07-24T08:45:28;7.05;;;5.50;;
17193;SDS011;8713;48.388;10.928;2022-07-24T08:46:39;8.52;;;5.60;;
17193;SDS011;8713;48.388;10.928;2022-07-24T08:47:50;6.65;;;4.95;;
17193;SDS011;8713;48.388;10.928;2022-07-24T08:49:00;8.85;;;5.20;;
17193;SDS011;8713;48.388;10.928;2022-07-24T08:50:10;7.28;;;5.32;;
17193;SDS011;8713;48.388;10.928;2022-07-24T08:51:20;7.05;;;5.00;;
17193;SDS011;8713;48.388;10.928;2022-07-24T08:52:30;11.90;;;5.68;;
17193;SDS011;8713;48.388;10.928;2022-07-24T08:53:40;6.65;;;5.22;;
17193;SDS011;8713;48.388;10.928;2022-07-24T08:54:51;8.85;;;5.05;;
17193;SDS011;8713;48.388;10.928;2022-07-24T08:56:02;7.43;;;5.10;;
17193;SDS011;8713;48.388;10.928;2022-07-24T08:57:11;6.35;;;5.10;;
17193;SDS011;8713;48.388;10.928;2022-07-24T08:58:21;7.50;;;5.50;;
17193;SDS011;8713;48.388;10.928;2022-07-24T08:59:30;6.18;;;5.00;;
17193;SDS011;8713;48.388;10.928;2022-07-24T09:00:40;6.25;;;5.03;;
17193;SDS011;8713;48.388;10.928;2022-07-24T09:01:50;8.13;;;5.30;;
17193;SDS011;8713;48.388;10.928;2022-07-24T09:02:59;9.55;;;5.47;;
17193;SDS011;8713;48.388;10.928;2022-07-24T09:05:57;7.40;;;4.80;;
17193;SDS011;8713;48.388;10.928;2022-07-24T09:07:08;6.47;;;4.65;;
17193;SDS011;8713;48.388;10.928;2022-07-24T09:08:23;5.95;;;5.05;;
17193;SDS011;8713;48.388;10.928;2022-07-24T09:09:32;8.40;;;4.97;;
17193;SDS011;8713;48.388;10.928;2022-07-24T09:10:53;7.65;;;4.75;;
17193;SDS011;8713;48.388;10.928;2022-07-24T09:12:14;7.50;;;4.60;;
17193;SDS011;8713;48.388;10.928;2022-07-24T09:13:26;7.82;;;5.10;;
17193;SDS011;8713;48.388;10.928;2022-07-24T09:14:39;6.72;;;5.03;;
17193;SDS011;8713;48.388;10.928;2022-07-24T09:15:52;8.85;;;4.97;;
17193;SDS011;8713;48.388;10.928;2022-07-24T09:17:09;7.35;;;5.15;;
17193;SDS011;8713;48.388;10.928;2022-07-24T09:18:30;7.20;;;4.85;;
17193;SDS011;8713;48.388;10.928;2022-07-24T09:21:12;6.78;;;4.60;;
17193;SDS011;8713;48.388;10.928;2022-07-24T09:22:24;5.82;;;4.70;;
17193;SDS011;8713;48.388;10.928;2022-07-24T09:23:37;8.43;;;5.15;;
17193;SDS011;8713;48.388;10.928;2022-07-24T09:24:47;7.57;;;5.35;;
17193;SDS011;8713;48.388;10.928;2022-07-24T09:26:12;11.27;;;5.47;;
17193;SDS011;8713;48.388;10.928;2022-07-24T09:27:21;7.30;;;5.30;;
17193;SDS011;8713;48.388;10.928;2022-07-24T09:28:52;7.55;;;4.80;;
17193;SDS011;8713;48.388;10.928;2022-07-24T09:30:03;9.52;;;5.40;;
17193;SDS011;8713;48.388;10.928;2022-07-24T09:31:16;8.88;;;5.25;;
17193;SDS011;8713;48.388;10.928;2022-07-24T09:32:26;7.18;;;5.47;;
17193;SDS011;8713;48.388;10.928;2022-07-24T09:33:35;7.40;;;5.03;;
17193;SDS011;8713;48.388;10.928;2022-07-24T09:34:45;7.63;;;5.03;;
17193;SDS011;8713;48.388;10.928;2022-07-24T09:35:55;7.60;;;5.13;;
17193;SDS011;8713;48.388;10.928;2022-07-24T09:37:06;7.35;;;5.13;;
17193;SDS011;8713;48.388;10.928;2022-07-24T09:38:21;6.32;;;4.80;;
17193;SDS011;8713;48.388;10.928;2022-07-24T09:39:32;9.23;;;5.90;;
17193;SDS011;8713;48.388;10.928;2022-07-24T09:40:51;8.80;;;5.70;;
17193;SDS011;8713;48.388;10.928;2022-07-24T09:42:04;7.95;;;5.28;;
17193;SDS011;8713;48.388;10.928;2022-07-24T09:43:19;7.65;;;5.30;;
17193;SDS011;8713;48.388;10.928;2022-07-24T09:44:37;6.38;;;5.07;;
17193;SDS011;8713;48.388;10.928;2022-07-24T09:47:18;6.78;;;5.05;;
17193;SDS011;8713;48.388;10.928;2022-07-24T09:48:29;7.97;;;5.07;;
17193;SDS011;8713;48.388;10.928;2022-07-24T09:49:42;5.95;;;4.63;;
17193;SDS011;8713;48.388;10.928;2022-07-24T09:50:54;6.57;;;4.70;;
17193;SDS011;8713;48.388;10.928;2022-07-24T09:53:26;8.02;;;4.80;;
17193;SDS011;8713;48.388;10.928;2022-07-24T09:54:39;7.25;;;5.03;;
17193;SDS011;8713;48.388;10.928;2022-07-24T09:56:04;7.15;;;5.10;;
17193;SDS011;8713;48.388;10.928;2022-07-24T09:57:20;7.35;;;4.68;;
17193;SDS011;8713;48.388;10.928;2022-07-24T09:58:30;7.88;;;5.18;;
17193;SDS011;8713;48.388;10.928;2022-07-24T09:59:42;10.13;;;5.30;;
17193;SDS011;8713;48.388;10.928;2022-07-24T10:00:56;6.97;;;4.88;;
17193;SDS011;8713;48.388;10.928;2022-07-24T10:02:07;7.75;;;4.70;;
17193;SDS011;8713;48.388;10.928;2022-07-24T10:03:16;8.40;;;5.35;;
17193;SDS011;8713;48.388;10.928;2022-07-24T10:04:27;7.63;;;4.57;;
17193;SDS011;8713;48.388;10.928;2022-07-24T10:05:43;7.82;;;5.03;;
17193;SDS011;8713;48.388;10.928;2022-07-24T10:06:55;7.07;;;5.18;;
17193;SDS011;8713;48.388;10.928;2022-07-24T10:08:05;7.93;;;5.25;;
17193;SDS011;8713;48.388;10.928;2022-07-24T10:09:16;7.88;;;5.38;;
17193;SDS011;8713;48.388;10.928;2022-07-24T10:10:29;9.43;;;5.20;;
17193;SDS011;8713;48.388;10.928;2022-07-24T10:11:40;6.30;;;5.03;;
17193;SDS011;8713;48.388;10.928;2022-07-24T10:12:51;7.22;;;5.00;;
17193;SDS011;8713;48.388;10.928;2022-07-24T10:14:00;7.85;;;5.63;;
17193;SDS011;8713;48.388;10.928;2022-07-24T10:15:10;5.93;;;4.72;;
17193;SDS011;8713;48.388;10.928;2022-07-24T10:16:25;8.52;;;5.35;;
17193;SDS011;8713;48.388;10.928;2022-07-24T10:17:52;6.43;;;5.05;;
17193;SDS011;8713;48.388;10.928;2022-07-24T10:19:22;7.10;;;5.32;;
17193;SDS011;8713;48.388;10.928;2022-07-24T10:20:41;8.48;;;5.03;;
17193;SDS011;8713;48.388;10.928;2022-07-24T10:21:53;8.43;;;5.40;;
17193;SDS011;8713;48.388;10.928;2022-07-24T10:23:06;7.10;;;5.18;;
17193;SDS011;8713;48.388;10.928;2022-07-24T10:24:22;10.05;;;5.13;;
17193;SDS011;8713;48.388;10.928;2022-07-24T10:26:06;8.18;;;5.45;;
17193;SDS011;8713;48.388;10.928;2022-07-24T10:27:30;7.22;;;5.20;;
17193;SDS011;8713;48.388;10.928;2022-07-24T10:28:46;8.45;;;5.03;;
17193;SDS011;8713;48.388;10.928;2022-07-24T10:30:00;6.07;;;5.13;;
17193;SDS011;8713;48.388;10.928;2022-07-24T10:31:17;8.60;;;5.50;;
17193;SDS011;8713;48.388;10.928;2022-07-24T10:32:27;6.38;;;5.10;;
17193;SDS011;8713;48.388;10.928;2022-07-24T10:33:40;6.95;;;5.30;;
17193;SDS011;8713;48.388;10.928;2022-07-24T10:36:03;7.38;;;5.30;;
17193;SDS011;8713;48.388;10.928;2022-07-24T10:37:30;6.75;;;5.13;;
17193;SDS011;8713;48.388;10.928;2022-07-24T10:38:51;6.78;;;5.30;;
17193;SDS011;8713;48.388;10.928;2022-07-24T10:41:38;7.60;;;4.95;;
17193;SDS011;8713;48.388;10.928;2022-07-24T10:43:07;6.82;;;5.05;;
17193;SDS011;8713;48.388;10.928;2022-07-24T10:44:22;7.20;;;4.75;;
17193;SDS011;8713;48.388;10.928;2022-07-24T10:45:32;9.52;;;5.63;;
17193;SDS011;8713;48.388;10.928;2022-07-24T10:47:04;7.93;;;4.95;;
17193;SDS011;8713;48.388;10.928;2022-07-24T10:54:48;7.80;;;5.07;;
17193;SDS011;8713;48.388;10.928;2022-07-24T10:58:00;7.70;;;5.45;;
17193;SDS011;8713;48.388;10.928;2022-07-24T10:59:12;7.10;;;5.20;;
17193;SDS011;8713;48.388;10.928;2022-07-24T11:00:22;8.90;;;5.40;;
17193;SDS011;8713;48.388;10.928;2022-07-24T11:01:44;6.85;;;5.28;;
17193;SDS011;8713;48.388;10.928;2022-07-24T11:03:03;8.15;;;5.35;;
17193;SDS011;8713;48.388;10.928;2022-07-24T11:05:33;6.82;;;5.18;;
17193;SDS011;8713;48.388;10.928;2022-07-24T11:09:23;6.55;;;5.05;;
17193;SDS011;8713;48.388;10.928;2022-07-24T11:17:41;5.85;;;4.85;;
17193;SDS011;8713;48.388;10.928;2022-07-24T11:20:01;7.57;;;5.18;;
17193;SDS011;8713;48.388;10.928;2022-07-24T11:21:11;8.82;;;5.13;;
17193;SDS011;8713;48.388;10.928;2022-07-24T11:22:21;8.70;;;5.68;;
17193;SDS011;8713;48.388;10.928;2022-07-24T11:24:14;6.22;;;4.88;;
17193;SDS011;8713;48.388;10.928;2022-07-24T11:25:27;7.88;;;5.10;;
17193;SDS011;8713;48.388;10.928;2022-07-24T11:26:37;5.75;;;4.53;;
17193;SDS011;8713;48.388;10.928;2022-07-24T11:27:53;7.18;;;5.05;;
17193;SDS011;8713;48.388;10.928;2022-07-24T11:29:18;6.57;;;4.95;;
17193;SDS011;8713;48.388;10.928;2022-07-24T11:30:42;6.07;;;4.75;;
17193;SDS011;8713;48.388;10.928;2022-07-24T11:31:54;6.45;;;5.00;;
17193;SDS011;8713;48.388;10.928;2022-07-24T11:33:17;8.27;;;4.90;;
17193;SDS011;8713;48.388;10.928;2022-07-24T11:34:31;7.60;;;5.40;;
17193;SDS011;8713;48.388;10.928;2022-07-24T11:35:40;7.18;;;5.10;;
17193;SDS011;8713;48.388;10.928;2022-07-24T11:36:50;9.52;;;5.47;;
17193;SDS011;8713;48.388;10.928;2022-07-24T11:38:02;8.10;;;5.53;;
17193;SDS011;8713;48.388;10.928;2022-07-24T11:39:14;6.47;;;4.80;;
17193;SDS011;8713;48.388;10.928;2022-07-24T11:40:24;6.38;;;5.13;;
17193;SDS011;8713;48.388;10.928;2022-07-24T11:43:14;5.97;;;4.65;;
17193;SDS011;8713;48.388;10.928;2022-07-24T11:44:25;7.63;;;5.45;;
17193;SDS011;8713;48.388;10.928;2022-07-24T11:45:51;8.82;;;5.97;;
17193;SDS011;8713;48.388;10.928;2022-07-24T11:47:05;8.43;;;5.57;;
17193;SDS011;8713;48.388;10.928;2022-07-24T11:48:19;7.90;;;5.47;;
17193;SDS011;8713;48.388;10.928;2022-07-24T11:49:29;5.65;;;5.05;;
17193;SDS011;8713;48.388;10.928;2022-07-24T11:50:39;6.40;;;4.88;;
17193;SDS011;8713;48.388;10.928;2022-07-24T11:51:49;6.72;;;5.40;;
17193;SDS011;8713;48.388;10.928;2022-07-24T11:53:00;7.80;;;5.70;;
17193;SDS011;8713;48.388;10.928;2022-07-24T11:54:21;11.00;;;5.70;;
17193;SDS011;8713;48.388;10.928;2022-07-24T11:55:34;8.25;;;5.13;;
17193;SDS011;8713;48.388;10.928;2022-07-24T11:56:44;7.35;;;5.18;;
17193;SDS011;8713;48.388;10.928;2022-07-24T11:57:54;7.43;;;5.45;;
17193;SDS011;8713;48.388;10.928;2022-07-24T11:59:04;9.23;;;5.82;;
17193;SDS011;8713;48.388;10.928;2022-07-24T12:00:15;7.53;;;5.70;;
17193;SDS011;8713;48.388;10.928;2022-07-24T12:01:36;8.68;;;5.55;;
17193;SDS011;8713;48.388;10.928;2022-07-24T12:02:50;6.65;;;4.75;;
17193;SDS011;8713;48.388;10.928;2022-07-24T12:04:01;6.85;;;4.93;;
17193;SDS011;8713;48.388;10.928;2022-07-24T12:05:10;6.30;;;4.70;;
17193;SDS011;8713;48.388;10.928;2022-07-24T12:06:20;9.07;;;5.50;;
17193;SDS011;8713;48.388;10.928;2022-07-24T12:07:29;8.73;;;4.88;;
17193;SDS011;8713;48.388;10.928;2022-07-24T12:08:39;7.90;;;5.47;;
17193;SDS011;8713;48.388;10.928;2022-07-24T12:09:58;7.35;;;5.15;;
17193;SDS011;8713;48.388;10.928;2022-07-24T12:11:09;9.43;;;4.93;;
17193;SDS011;8713;48.388;10.928;2022-07-24T12:12:30;6.75;;;4.95;;
17193;SDS011;8713;48.388;10.928;2022-07-24T12:13:46;8.07;;;4.95;;
17193;SDS011;8713;48.388;10.928;2022-07-24T12:15:08;6.80;;;5.00;;
17193;SDS011;8713;48.388;10.928;2022-07-24T12:16:24;9.38;;;5.65;;
17193;SDS011;8713;48.388;10.928;2022-07-24T12:17:35;6.90;;;5.20;;
17193;SDS011;8713;48.388;10.928;2022-07-24T12:19:11;6.82;;;5.10;;
17193;SDS011;8713;48.388;10.928;2022-07-24T12:20:21;7.88;;;5.80;;
17193;SDS011;8713;48.388;10.928;2022-07-24T12:21:39;6.85;;;5.15;;
17193;SDS011;8713;48.388;10.928;2022-07-24T12:22:49;7.50;;;5.40;;
17193;SDS011;8713;48.388;10.928;2022-07-24T12:23:58;8.70;;;5.43;;
17193;SDS011;8713;48.388;10.928;2022-07-24T12:25:08;7.63;;;5.53;;
17193;SDS011;8713;48.388;10.928;2022-07-24T12:26:18;7.97;;;5.13;;
17193;SDS011;8713;48.388;10.928;2022-07-24T12:27:40;7.15;;;5.20;;
17193;SDS011;8713;48.388;10.928;2022-07-24T12:29:07;6.32;;;5.32;;
17193;SDS011;8713;48.388;10.928;2022-07-24T12:30:21;6.45;;;5.10;;
17193;SDS011;8713;48.388;10.928;2022-07-24T12:31:35;7.43;;;5.32;;
17193;SDS011;8713;48.388;10.928;2022-07-24T12:32:54;7.10;;;5.13;;
17193;SDS011;8713;48.388;10.928;2022-07-24T12:34:05;8.38;;;5.45;;
17193;SDS011;8713;48.388;10.928;2022-07-24T12:35:14;9.65;;;5.80;;
17193;SDS011;8713;48.388;10.928;2022-07-24T12:36:24;8.23;;;5.45;;
17193;SDS011;8713;48.388;10.928;2022-07-24T12:37:36;7.65;;;5.47;;
17193;SDS011;8713;48.388;10.928;2022-07-24T12:39:59;9.20;;;5.25;;
17193;SDS011;8713;48.388;10.928;2022-07-24T12:41:13;6.35;;;5.30;;
17193;SDS011;8713;48.388;10.928;2022-07-24T12:42:30;7.07;;;5.30;;
17193;SDS011;8713;48.388;10.928;2022-07-24T12:45:06;7.28;;;5.00;;
17193;SDS011;8713;48.388;10.928;2022-07-24T12:46:18;7.85;;;5.20;;
17193;SDS011;8713;48.388;10.928;2022-07-24T12:47:35;8.25;;;4.95;;
17193;SDS011;8713;48.388;10.928;2022-07-24T12:49:40;7.97;;;5.40;;
17193;SDS011;8713;48.388;10.928;2022-07-24T12:50:59;6.93;;;5.00;;
17193;SDS011;8713;48.388;10.928;2022-07-24T12:52:22;8.45;;;5.55;;
17193;SDS011;8713;48.388;10.928;2022-07-24T12:53:34;7.18;;;4.97;;
17193;SDS011;8713;48.388;10.928;2022-07-24T12:54:46;7.57;;;5.22;;
17193;SDS011;8713;48.388;10.928;2022-07-24T12:56:00;6.82;;;5.53;;
17193;SDS011;8713;48.388;10.928;2022-07-24T12:57:20;7.65;;;5.10;;
17193;SDS011;8713;48.388;10.928;2022-07-24T12:58:46;7.05;;;5.32;;
17193;SDS011;8713;48.388;10.928;2022-07-24T13:00:08;6.85;;;5.03;;
17193;SDS011;8713;48.388;10.928;2022-07-24T13:01:19;11.95;;;5.95;;
17193;SDS011;8713;48.388;10.928;2022-07-24T13:02:30;7.55;;;5.60;;
17193;SDS011;8713;48.388;10.928;2022-07-24T13:03:40;8.57;;;6.00;;
17193;SDS011;8713;48.388;10.928;2022-07-24T13:04:51;8.05;;;5.82;;
17193;SDS011;8713;48.388;10.928;2022-07-24T13:06:02;6.40;;;5.25;;
17193;SDS011;8713;48.388;10.928;2022-07-24T13:07:12;6.07;;;5.20;;
17193;SDS011;8713;48.388;10.928;2022-07-24T13:08:23;6.20;;;4.82;;
17193;SDS011;8713;48.388;10.928;2022-07-24T13:09:36;7.22;;;4.90;;
17193;SDS011;8713;48.388;10.928;2022-07-24T13:10:45;6.47;;;4.70;;
17193;SDS011;8713;48.388;10.928;2022-07-24T13:11:55;7.43;;;4.85;;
17193;SDS011;8713;48.388;10.928;2022-07-24T13:13:04;6.50;;;5.13;;
17193;SDS011;8713;48.388;10.928;2022-07-24T13:14:15;9.02;;;5.07;;
17193;SDS011;8713;48.388;10.928;2022-07-24T13:15:26;10.82;;;5.40;;
17193;SDS011;8713;48.388;10.928;2022-07-24T13:16:37;8.77;;;5.43;;
17193;SDS011;8713;48.388;10.928;2022-07-24T13:17:48;7.75;;;5.35;;
17193;SDS011;8713;48.388;10.928;2022-07-24T13:18:58;6.68;;;5.20;;
17193;SDS011;8713;48.388;10.928;2022-07-24T13:20:08;7.15;;;5.30;;
17193;SDS011;8713;48.388;10.928;2022-07-24T13:21:18;8.05;;;5.43;;
17193;SDS011;8713;48.388;10.928;2022-07-24T13:22:28;7.88;;;4.75;;
17193;SDS011;8713;48.388;10.928;2022-07-24T13:23:37;6.82;;;5.13;;
17193;SDS011;8713;48.388;10.928;2022-07-24T13:24:47;7.65;;;5.38;;
17193;SDS011;8713;48.388;10.928;2022-07-24T13:25:57;7.97;;;5.55;;
17193;SDS011;8713;48.388;10.928;2022-07-24T13:27:06;7.72;;;5.68;;
17193;SDS011;8713;48.388;10.928;2022-07-24T13:28:17;7.63;;;5.20;;
17193;SDS011;8713;48.388;10.928;2022-07-24T13:29:27;8.07;;;5.22;;
17193;SDS011;8713;48.388;10.928;2022-07-24T13:30:36;7.93;;;5.05;;
17193;SDS011;8713;48.388;10.928;2022-07-24T13:31:46;6.05;;;4.63;;
17193;SDS011;8713;48.388;10.928;2022-07-24T13:32:55;6.28;;;5.30;;
17193;SDS011;8713;48.388;10.928;2022-07-24T13:34:05;7.70;;;4.88;;
17193;SDS011;8713;48.388;10.928;2022-07-24T13:35:14;7.40;;;5.18;;
17193;SDS011;8713;48.388;10.928;2022-07-24T13:36:24;6.60;;;4.93;;
17193;SDS011;8713;48.388;10.928;2022-07-24T13:37:33;6.35;;;4.97;;
17193;SDS011;8713;48.388;10.928;2022-07-24T13:38:43;7.57;;;5.05;;
17193;SDS011;8713;48.388;10.928;2022-07-24T13:39:53;6.57;;;5.07;;
17193;SDS011;8713;48.388;10.928;2022-07-24T13:41:02;6.43;;;4.88;;
17193;SDS011;8713;48.388;10.928;2022-07-24T13:42:12;8.57;;;5.20;;
17193;SDS011;8713;48.388;10.928;2022-07-24T13:43:23;7.43;;;4.57;;
17193;SDS011;8713;48.388;10.928;2022-07-24T13:44:32;8.13;;;4.70;;
17193;SDS011;8713;48.388;10.928;2022-07-24T13:45:42;6.78;;;4.82;;
17193;SDS011;8713;48.388;10.928;2022-07-24T13:46:52;6.93;;;5.00;;
17193;SDS011;8713;48.388;10.928;2022-07-24T13:48:01;5.60;;;4.50;;
17193;SDS011;8713;48.388;10.928;2022-07-24T13:49:10;6.63;;;4.95;;
17193;SDS011;8713;48.388;10.928;2022-07-24T13:50:23;7.50;;;4.95;;
17193;SDS011;8713;48.388;10.928;2022-07-24T13:51:33;5.20;;;4.40;;
17193;SDS011;8713;48.388;10.928;2022-07-24T13:52:43;6.03;;;4.57;;
17193;SDS011;8713;48.388;10.928;2022-07-24T13:53:53;5.97;;;4.95;;
17193;SDS011;8713;48.388;10.928;2022-07-24T13:55:03;7.68;;;5.40;;
17193;SDS011;8713;48.388;10.928;2022-07-24T13:56:13;6.10;;;4.63;;
17193;SDS011;8713;48.388;10.928;2022-07-24T13:57:22;7.22;;;5.07;;
17193;SDS011;8713;48.388;10.928;2022-07-24T13:58:32;7.72;;;5.05;;
17193;SDS011;8713;48.388;10.928;2022-07-24T13:59:44;6.70;;;5.05;;
17193;SDS011;8713;48.388;10.928;2022-07-24T14:00:53;6.70;;;5.03;;
17193;SDS011;8713;48.388;10.928;2022-07-24T14:02:03;6.50;;;4.53;;
17193;SDS011;8713;48.388;10.928;2022-07-24T14:03:13;5.97;;;4.60;;
17193;SDS011;8713;48.388;10.928;2022-07-24T14:04:22;5.47;;;4.75;;
17193;SDS011;8713;48.388;10.928;2022-07-24T14:05:32;5.97;;;5.25;;
17193;SDS011;8713;48.388;10.928;2022-07-24T14:06:41;7.03;;;5.07;;
17193;SDS011;8713;48.388;10.928;2022-07-24T14:07:51;6.65;;;5.40;;
17193;SDS011;8713;48.388;10.928;2022-07-24T14:09:05;6.70;;;5.07;;
17193;SDS011;8713;48.388;10.928;2022-07-24T14:10:14;8.57;;;6.07;;
17193;SDS011;8713;48.388;10.928;2022-07-24T14:11:23;6.20;;;4.82;;
17193;SDS011;8713;48.388;10.928;2022-07-24T14:12:33;6.63;;;5.00;;
17193;SDS011;8713;48.388;10.928;2022-07-24T14:13:43;7.07;;;5.40;;